sensor_id;sensor_type;location;lat;lon;timestamp;P1;durP1;ratioP1;P2;durP2;ratioP2
78589;SDS011;67888;50.228;7.828;2023-02-21T00:04:23;15.93;;;6.07;;
78589;SDS011;67888;50.228;7.828;2023-02-21T00:09:42;14.23;;;5.63;;
78589;SDS011;67888;50.228;7.828;2023-02-21T00:15:01;14.45;;;6.30;;
78589;SDS011;67888;50.228;7.828;2023-02-21T00:20:21;15.10;;;6.40;;
78589;SDS011;67888;50.228;7.828;2023-02-21T00:25:40;15.60;;;6.10;;
78589;SDS011;67888;50.228;7.828;2023-02-21T00:30:59;14.63;;;6.30;;
78589;SDS011;67888;50.228;7.828;2023-02-21T00:36:18;16.55;;;5.85;;
78589;SDS011;67888;50.228;7.828;2023-02-21T00:41:37;14.57;;;5.87;;
78589;SDS011;67888;50.228;7.828;2023-02-21T00:46:56;15.05;;;5.70;;
78589;SDS011;67888;50.228;7.828;2023-02-21T00:52:15;15.75;;;5.80;;
78589;SDS011;67888;50.228;7.828;2023-02-21T00:57:34;14.70;;;6.30;;
78589;SDS011;67888;50.228;7.828;2023-02-21T01:02:53;13.93;;;5.70;;
78589;SDS011;67888;50.228;7.828;2023-02-21T01:08:12;12.95;;;5.22;;
78589;SDS011;67888;50.228;7.828;2023-02-21T01:13:32;14.37;;;5.93;;
78589;SDS011;67888;50.228;7.828;2023-02-21T01:18:51;16.60;;;6.30;;
78589;SDS011;67888;50.228;7.828;2023-02-21T01:24:11;17.30;;;6.53;;
78589;SDS011;67888;50.228;7.828;2023-02-21T01:29:32;15.68;;;6.30;;
78589;SDS011;67888;50.228;7.828;2023-02-21T01:34:51;17.77;;;6.87;;
78589;SDS011;67888;50.228;7.828;2023-02-21T01:40:13;13.93;;;5.88;;
78589;SDS011;67888;50.228;7.828;2023-02-21T01:45:38;13.75;;;6.30;;
78589;SDS011;67888;50.228;7.828;2023-02-21T01:51:04;14.00;;;5.63;;
78589;SDS011;67888;50.228;7.828;2023-02-21T01:56:27;14.20;;;5.97;;
78589;SDS011;67888;50.228;7.828;2023-02-21T02:01:51;14.38;;;6.43;;
78589;SDS011;67888;50.228;7.828;2023-02-21T02:07:13;18.27;;;7.70;;
78589;SDS011;67888;50.228;7.828;2023-02-21T02:12:51;16.13;;;6.22;;
78589;SDS011;67888;50.228;7.828;2023-02-21T02:18:27;16.42;;;6.60;;
78589;SDS011;67888;50.228;7.828;2023-02-21T02:23:37;20.80;;;7.77;;
78589;SDS011;67888;50.228;7.828;2023-02-21T02:39:23;18.93;;;6.83;;
78589;SDS011;67888;50.228;7.828;2023-02-21T02:44:34;18.27;;;7.20;;
78589;SDS011;67888;50.228;7.828;2023-02-21T02:49:40;16.48;;;6.57;;
78589;SDS011;67888;50.228;7.828;2023-02-21T02:54:43;16.58;;;6.13;;
78589;SDS011;67888;50.228;7.828;2023-02-21T02:59:44;17.20;;;6.63;;
78589;SDS011;67888;50.228;7.828;2023-02-21T03:10:11;16.10;;;5.93;;
78589;SDS011;67888;50.228;7.828;2023-02-21T03:20:18;16.30;;;7.60;;
78589;SDS011;67888;50.228;7.828;2023-02-21T03:25:21;18.60;;;7.50;;
78589;SDS011;67888;50.228;7.828;2023-02-21T03:30:23;14.00;;;5.63;;
78589;SDS011;67888;50.228;7.828;2023-02-21T03:35:24;15.48;;;6.57;;
78589;SDS011;67888;50.228;7.828;2023-02-21T03:40:31;14.30;;;5.95;;
78589;SDS011;67888;50.228;7.828;2023-02-21T03:45:34;15.03;;;5.93;;
78589;SDS011;67888;50.228;7.828;2023-02-21T03:50:35;14.65;;;6.57;;
78589;SDS011;67888;50.228;7.828;2023-02-21T03:55:36;13.77;;;5.97;;
78589;SDS011;67888;50.228;7.828;2023-02-21T04:00:36;13.20;;;5.68;;
78589;SDS011;67888;50.228;7.828;2023-02-21T04:05:37;12.47;;;5.63;;
78589;SDS011;67888;50.228;7.828;2023-02-21T04:10:37;14.13;;;5.67;;
78589;SDS011;67888;50.228;7.828;2023-02-21T04:15:38;12.97;;;5.33;;
78589;SDS011;67888;50.228;7.828;2023-02-21T04:20:38;17.10;;;5.80;;
78589;SDS011;67888;50.228;7.828;2023-02-21T04:25:39;15.53;;;6.00;;
78589;SDS011;67888;50.228;7.828;2023-02-21T04:30:40;13.95;;;5.72;;
78589;SDS011;67888;50.228;7.828;2023-02-21T04:35:40;16.00;;;5.83;;
78589;SDS011;67888;50.228;7.828;2023-02-21T04:40:41;13.93;;;6.00;;
78589;SDS011;67888;50.228;7.828;2023-02-21T04:45:41;15.70;;;6.00;;
78589;SDS011;67888;50.228;7.828;2023-02-21T04:50:42;15.33;;;5.47;;
78589;SDS011;67888;50.228;7.828;2023-02-21T04:55:42;14.03;;;5.90;;
78589;SDS011;67888;50.228;7.828;2023-02-21T05:00:43;15.07;;;5.70;;
78589;SDS011;67888;50.228;7.828;2023-02-21T05:05:44;14.67;;;6.07;;
78589;SDS011;67888;50.228;7.828;2023-02-21T05:10:44;12.60;;;5.37;;
78589;SDS011;67888;50.228;7.828;2023-02-21T05:15:45;13.40;;;5.75;;
78589;SDS011;67888;50.228;7.828;2023-02-21T05:20:46;14.13;;;5.77;;
78589;SDS011;67888;50.228;7.828;2023-02-21T05:25:46;14.97;;;6.20;;
78589;SDS011;67888;50.228;7.828;2023-02-21T05:30:47;16.50;;;6.73;;
78589;SDS011;67888;50.228;7.828;2023-02-21T05:35:47;16.00;;;6.80;;
78589;SDS011;67888;50.228;7.828;2023-02-21T05:40:48;14.85;;;6.25;;
78589;SDS011;67888;50.228;7.828;2023-02-21T05:45:49;16.03;;;6.13;;
78589;SDS011;67888;50.228;7.828;2023-02-21T05:50:49;14.77;;;6.17;;
78589;SDS011;67888;50.228;7.828;2023-02-21T05:55:50;13.63;;;6.37;;
78589;SDS011;67888;50.228;7.828;2023-02-21T06:00:50;14.50;;;5.38;;
78589;SDS011;67888;50.228;7.828;2023-02-21T06:05:51;14.70;;;5.70;;
78589;SDS011;67888;50.228;7.828;2023-02-21T06:10:52;15.13;;;5.87;;
78589;SDS011;67888;50.228;7.828;2023-02-21T06:15:53;13.90;;;5.63;;
78589;SDS011;67888;50.228;7.828;2023-02-21T06:20:54;15.10;;;6.05;;
78589;SDS011;67888;50.228;7.828;2023-02-21T06:25:54;12.90;;;5.37;;
78589;SDS011;67888;50.228;7.828;2023-02-21T06:30:55;15.13;;;6.03;;
78589;SDS011;67888;50.228;7.828;2023-02-21T06:35:56;16.63;;;6.35;;
78589;SDS011;67888;50.228;7.828;2023-02-21T06:40:57;16.53;;;6.33;;
78589;SDS011;67888;50.228;7.828;2023-02-21T06:45:57;14.38;;;5.95;;
78589;SDS011;67888;50.228;7.828;2023-02-21T06:50:58;14.50;;;5.97;;
78589;SDS011;67888;50.228;7.828;2023-02-21T06:55:58;14.43;;;5.63;;
78589;SDS011;67888;50.228;7.828;2023-02-21T07:00:59;16.03;;;5.77;;
78589;SDS011;67888;50.228;7.828;2023-02-21T07:06:00;14.95;;;6.32;;
78589;SDS011;67888;50.228;7.828;2023-02-21T07:11:00;15.37;;;6.13;;
78589;SDS011;67888;50.228;7.828;2023-02-21T07:16:01;13.93;;;6.13;;
78589;SDS011;67888;50.228;7.828;2023-02-21T07:21:02;15.75;;;6.75;;
78589;SDS011;67888;50.228;7.828;2023-02-21T07:26:03;14.23;;;6.57;;
78589;SDS011;67888;50.228;7.828;2023-02-21T07:31:04;16.60;;;7.43;;
78589;SDS011;67888;50.228;7.828;2023-02-21T07:36:05;16.37;;;7.13;;
78589;SDS011;67888;50.228;7.828;2023-02-21T07:41:06;20.33;;;9.52;;
78589;SDS011;67888;50.228;7.828;2023-02-21T07:46:10;16.57;;;8.57;;
78589;SDS011;67888;50.228;7.828;2023-02-21T07:51:12;16.23;;;7.30;;
78589;SDS011;67888;50.228;7.828;2023-02-21T07:56:12;19.27;;;8.27;;
78589;SDS011;67888;50.228;7.828;2023-02-21T08:01:13;17.97;;;7.70;;
78589;SDS011;67888;50.228;7.828;2023-02-21T08:06:13;16.40;;;7.17;;
78589;SDS011;67888;50.228;7.828;2023-02-21T08:11:14;17.13;;;7.93;;
78589;SDS011;67888;50.228;7.828;2023-02-21T08:16:15;19.10;;;8.27;;
78589;SDS011;67888;50.228;7.828;2023-02-21T08:21:15;19.03;;;8.20;;
78589;SDS011;67888;50.228;7.828;2023-02-21T08:26:16;18.83;;;8.88;;
78589;SDS011;67888;50.228;7.828;2023-02-21T08:31:16;19.60;;;9.40;;
78589;SDS011;67888;50.228;7.828;2023-02-21T08:36:17;24.10;;;11.13;;
78589;SDS011;67888;50.228;7.828;2023-02-21T08:41:17;26.87;;;12.20;;
78589;SDS011;67888;50.228;7.828;2023-02-21T08:46:18;27.27;;;13.93;;
78589;SDS011;67888;50.228;7.828;2023-02-21T08:51:23;30.80;;;15.52;;
78589;SDS011;67888;50.228;7.828;2023-02-21T08:56:24;28.23;;;14.77;;
78589;SDS011;67888;50.228;7.828;2023-02-21T09:01:30;37.38;;;19.02;;
78589;SDS011;67888;50.228;7.828;2023-02-21T09:06:31;30.30;;;15.77;;
78589;SDS011;67888;50.228;7.828;2023-02-21T09:11:32;35.03;;;16.10;;
78589;SDS011;67888;50.228;7.828;2023-02-21T09:16:32;29.67;;;13.97;;
78589;SDS011;67888;50.228;7.828;2023-02-21T09:21:33;34.53;;;17.80;;
78589;SDS011;67888;50.228;7.828;2023-02-21T09:26:34;33.38;;;16.50;;
78589;SDS011;67888;50.228;7.828;2023-02-21T09:31:35;36.60;;;18.03;;
78589;SDS011;67888;50.228;7.828;2023-02-21T09:36:35;32.57;;;15.00;;
78589;SDS011;67888;50.228;7.828;2023-02-21T09:41:36;30.43;;;15.03;;
78589;SDS011;67888;50.228;7.828;2023-02-21T09:46:40;28.52;;;13.48;;
78589;SDS011;67888;50.228;7.828;2023-02-21T09:51:44;23.97;;;11.53;;
78589;SDS011;67888;50.228;7.828;2023-02-21T09:56:48;23.52;;;11.88;;
78589;SDS011;67888;50.228;7.828;2023-02-21T10:01:56;26.60;;;12.07;;
78589;SDS011;67888;50.228;7.828;2023-02-21T10:07:13;23.17;;;11.07;;
78589;SDS011;67888;50.228;7.828;2023-02-21T10:12:29;23.40;;;11.15;;
78589;SDS011;67888;50.228;7.828;2023-02-21T10:17:37;20.67;;;10.33;;
78589;SDS011;67888;50.228;7.828;2023-02-21T10:22:42;23.55;;;10.98;;
78589;SDS011;67888;50.228;7.828;2023-02-21T10:27:46;22.73;;;10.55;;
78589;SDS011;67888;50.228;7.828;2023-02-21T10:32:48;24.37;;;10.33;;
78589;SDS011;67888;50.228;7.828;2023-02-21T10:37:53;22.60;;;10.23;;
78589;SDS011;67888;50.228;7.828;2023-02-21T10:43:02;20.17;;;9.40;;
78589;SDS011;67888;50.228;7.828;2023-02-21T10:48:10;20.55;;;9.68;;
78589;SDS011;67888;50.228;7.828;2023-02-21T10:53:21;18.58;;;9.15;;
78589;SDS011;67888;50.228;7.828;2023-02-21T10:58:27;18.47;;;8.83;;
78589;SDS011;67888;50.228;7.828;2023-02-21T11:03:29;19.33;;;8.60;;
78589;SDS011;67888;50.228;7.828;2023-02-21T11:08:34;20.17;;;9.30;;
78589;SDS011;67888;50.228;7.828;2023-02-21T11:13:37;20.20;;;9.20;;
78589;SDS011;67888;50.228;7.828;2023-02-21T11:18:38;18.30;;;8.13;;
78589;SDS011;67888;50.228;7.828;2023-02-21T11:23:43;16.30;;;8.20;;
78589;SDS011;67888;50.228;7.828;2023-02-21T11:28:48;16.77;;;8.53;;
78589;SDS011;67888;50.228;7.828;2023-02-21T11:33:55;17.60;;;8.27;;
78589;SDS011;67888;50.228;7.828;2023-02-21T11:39:06;17.00;;;8.83;;
78589;SDS011;67888;50.228;7.828;2023-02-21T11:44:33;16.48;;;8.18;;
78589;SDS011;67888;50.228;7.828;2023-02-21T11:54:55;16.70;;;7.80;;
78589;SDS011;67888;50.228;7.828;2023-02-21T12:27:08;15.38;;;6.88;;
78589;SDS011;67888;50.228;7.828;2023-02-21T12:42:49;10.17;;;4.73;;
78589;SDS011;67888;50.228;7.828;2023-02-21T12:48:46;12.73;;;4.85;;
78589;SDS011;67888;50.228;7.828;2023-02-21T13:09:54;9.15;;;3.47;;
78589;SDS011;67888;50.228;7.828;2023-02-21T13:14:59;7.88;;;3.10;;
78589;SDS011;67888;50.228;7.828;2023-02-21T13:20:12;7.77;;;3.13;;
78589;SDS011;67888;50.228;7.828;2023-02-21T13:31:02;7.55;;;3.30;;
78589;SDS011;67888;50.228;7.828;2023-02-21T13:36:15;7.07;;;3.00;;
78589;SDS011;67888;50.228;7.828;2023-02-21T13:41:17;7.20;;;3.03;;
78589;SDS011;67888;50.228;7.828;2023-02-21T13:51:48;5.88;;;2.85;;
78589;SDS011;67888;50.228;7.828;2023-02-21T13:56:52;4.83;;;2.33;;
78589;SDS011;67888;50.228;7.828;2023-02-21T14:02:13;5.40;;;2.50;;
78589;SDS011;67888;50.228;7.828;2023-02-21T14:07:46;4.97;;;2.40;;
78589;SDS011;67888;50.228;7.828;2023-02-21T14:12:59;6.00;;;2.65;;
78589;SDS011;67888;50.228;7.828;2023-02-21T14:18:02;6.63;;;2.60;;
78589;SDS011;67888;50.228;7.828;2023-02-21T14:23:03;5.60;;;2.57;;
78589;SDS011;67888;50.228;7.828;2023-02-21T14:28:47;5.32;;;2.63;;
78589;SDS011;67888;50.228;7.828;2023-02-21T14:33:44;5.53;;;2.67;;
78589;SDS011;67888;50.228;7.828;2023-02-21T14:38:46;6.68;;;3.03;;
78589;SDS011;67888;50.228;7.828;2023-02-21T14:43:57;6.50;;;2.88;;
78589;SDS011;67888;50.228;7.828;2023-02-21T15:00:18;7.50;;;3.22;;
78589;SDS011;67888;50.228;7.828;2023-02-21T15:05:44;7.00;;;2.97;;
78589;SDS011;67888;50.228;7.828;2023-02-21T15:11:00;9.07;;;3.77;;
78589;SDS011;67888;50.228;7.828;2023-02-21T15:16:05;6.60;;;3.03;;
78589;SDS011;67888;50.228;7.828;2023-02-21T15:26:22;6.73;;;2.90;;
78589;SDS011;67888;50.228;7.828;2023-02-21T15:31:22;6.20;;;2.85;;
78589;SDS011;67888;50.228;7.828;2023-02-21T15:36:27;7.53;;;3.38;;
78589;SDS011;67888;50.228;7.828;2023-02-21T15:46:46;8.07;;;2.95;;
78589;SDS011;67888;50.228;7.828;2023-02-21T15:52:01;8.50;;;3.20;;
78589;SDS011;67888;50.228;7.828;2023-02-21T16:07:34;7.63;;;3.40;;
78589;SDS011;67888;50.228;7.828;2023-02-21T16:12:36;8.63;;;3.70;;
78589;SDS011;67888;50.228;7.828;2023-02-21T16:17:39;8.00;;;3.90;;
78589;SDS011;67888;50.228;7.828;2023-02-21T16:22:41;6.97;;;3.60;;
78589;SDS011;67888;50.228;7.828;2023-02-21T16:28:05;8.20;;;3.50;;
78589;SDS011;67888;50.228;7.828;2023-02-21T16:33:11;11.67;;;4.10;;
78589;SDS011;67888;50.228;7.828;2023-02-21T16:38:16;8.80;;;3.83;;
78589;SDS011;67888;50.228;7.828;2023-02-21T16:43:22;8.57;;;3.70;;
78589;SDS011;67888;50.228;7.828;2023-02-21T16:48:26;11.70;;;4.90;;
78589;SDS011;67888;50.228;7.828;2023-02-21T16:53:32;8.87;;;3.97;;
78589;SDS011;67888;50.228;7.828;2023-02-21T16:58:34;9.57;;;4.15;;
78589;SDS011;67888;50.228;7.828;2023-02-21T17:03:36;10.97;;;4.57;;
78589;SDS011;67888;50.228;7.828;2023-02-21T17:08:37;9.45;;;4.15;;
78589;SDS011;67888;50.228;7.828;2023-02-21T17:13:37;9.53;;;4.67;;
78589;SDS011;67888;50.228;7.828;2023-02-21T17:18:38;9.77;;;4.57;;
78589;SDS011;67888;50.228;7.828;2023-02-21T17:23:39;9.77;;;4.67;;
78589;SDS011;67888;50.228;7.828;2023-02-21T17:28:40;14.35;;;6.50;;
78589;SDS011;67888;50.228;7.828;2023-02-21T17:33:41;17.00;;;8.73;;
78589;SDS011;67888;50.228;7.828;2023-02-21T17:38:41;9.33;;;3.80;;
78589;SDS011;67888;50.228;7.828;2023-02-21T17:43:42;7.83;;;3.27;;
78589;SDS011;67888;50.228;7.828;2023-02-21T17:48:43;9.03;;;3.00;;
78589;SDS011;67888;50.228;7.828;2023-02-21T17:53:43;6.93;;;2.83;;
78589;SDS011;67888;50.228;7.828;2023-02-21T17:58:44;7.43;;;3.03;;
78589;SDS011;67888;50.228;7.828;2023-02-21T18:03:46;8.00;;;3.30;;
78589;SDS011;67888;50.228;7.828;2023-02-21T18:08:47;8.77;;;3.77;;
78589;SDS011;67888;50.228;7.828;2023-02-21T18:13:48;8.20;;;3.20;;
78589;SDS011;67888;50.228;7.828;2023-02-21T18:18:48;9.63;;;3.93;;
78589;SDS011;67888;50.228;7.828;2023-02-21T18:23:49;9.50;;;3.35;;
78589;SDS011;67888;50.228;7.828;2023-02-21T18:28:50;8.70;;;3.37;;
78589;SDS011;67888;50.228;7.828;2023-02-21T18:33:50;7.97;;;3.43;;
78589;SDS011;67888;50.228;7.828;2023-02-21T18:38:51;9.30;;;3.17;;
78589;SDS011;67888;50.228;7.828;2023-02-21T18:43:52;9.27;;;3.43;;
78589;SDS011;67888;50.228;7.828;2023-02-21T18:48:52;7.77;;;3.33;;
78589;SDS011;67888;50.228;7.828;2023-02-21T18:53:53;8.67;;;4.00;;
78589;SDS011;67888;50.228;7.828;2023-02-21T18:58:54;7.67;;;3.20;;
78589;SDS011;67888;50.228;7.828;2023-02-21T19:03:55;9.18;;;3.30;;
78589;SDS011;67888;50.228;7.828;2023-02-21T19:08:55;8.30;;;3.20;;
78589;SDS011;67888;50.228;7.828;2023-02-21T19:13:55;7.47;;;3.00;;
78589;SDS011;67888;50.228;7.828;2023-02-21T19:18:57;8.87;;;3.80;;
78589;SDS011;67888;50.228;7.828;2023-02-21T19:23:58;9.07;;;3.30;;
78589;SDS011;67888;50.228;7.828;2023-02-21T19:28:59;8.10;;;3.30;;
78589;SDS011;67888;50.228;7.828;2023-02-21T19:33:59;8.53;;;2.97;;
78589;SDS011;67888;50.228;7.828;2023-02-21T19:39:00;9.13;;;3.33;;
78589;SDS011;67888;50.228;7.828;2023-02-21T19:44:03;10.30;;;4.03;;
78589;SDS011;67888;50.228;7.828;2023-02-21T19:49:04;9.48;;;4.05;;
78589;SDS011;67888;50.228;7.828;2023-02-21T19:54:17;9.15;;;3.67;;
78589;SDS011;67888;50.228;7.828;2023-02-21T19:59:20;9.07;;;4.07;;
78589;SDS011;67888;50.228;7.828;2023-02-21T20:04:21;8.68;;;3.85;;
78589;SDS011;67888;50.228;7.828;2023-02-21T20:09:22;10.05;;;3.90;;
78589;SDS011;67888;50.228;7.828;2023-02-21T20:14:25;10.10;;;4.03;;
78589;SDS011;67888;50.228;7.828;2023-02-21T20:19:26;8.60;;;4.20;;
78589;SDS011;67888;50.228;7.828;2023-02-21T20:24:29;10.82;;;4.65;;
78589;SDS011;67888;50.228;7.828;2023-02-21T20:29:30;10.07;;;4.68;;
78589;SDS011;67888;50.228;7.828;2023-02-21T20:34:31;10.63;;;4.83;;
78589;SDS011;67888;50.228;7.828;2023-02-21T20:39:32;10.52;;;4.72;;
78589;SDS011;67888;50.228;7.828;2023-02-21T20:44:34;10.93;;;4.53;;
78589;SDS011;67888;50.228;7.828;2023-02-21T20:49:36;10.25;;;4.25;;
78589;SDS011;67888;50.228;7.828;2023-02-21T20:54:38;12.48;;;4.70;;
78589;SDS011;67888;50.228;7.828;2023-02-21T20:59:40;10.47;;;4.73;;
78589;SDS011;67888;50.228;7.828;2023-02-21T21:04:41;12.10;;;4.97;;
78589;SDS011;67888;50.228;7.828;2023-02-21T21:09:42;11.55;;;4.93;;
78589;SDS011;67888;50.228;7.828;2023-02-21T21:14:44;10.50;;;4.97;;
78589;SDS011;67888;50.228;7.828;2023-02-21T21:19:47;11.43;;;4.93;;
78589;SDS011;67888;50.228;7.828;2023-02-21T21:24:51;10.82;;;5.40;;
78589;SDS011;67888;50.228;7.828;2023-02-21T21:29:52;11.35;;;5.45;;
78589;SDS011;67888;50.228;7.828;2023-02-21T21:34:53;11.30;;;4.97;;
78589;SDS011;67888;50.228;7.828;2023-02-21T21:39:56;12.25;;;5.47;;
78589;SDS011;67888;50.228;7.828;2023-02-21T21:44:56;12.67;;;5.43;;
78589;SDS011;67888;50.228;7.828;2023-02-21T21:49:57;12.43;;;5.97;;
78589;SDS011;67888;50.228;7.828;2023-02-21T21:54:58;11.73;;;5.80;;
78589;SDS011;67888;50.228;7.828;2023-02-21T21:59:59;11.73;;;5.63;;
78589;SDS011;67888;50.228;7.828;2023-02-21T22:04:59;13.43;;;5.80;;
78589;SDS011;67888;50.228;7.828;2023-02-21T22:09:59;12.73;;;5.40;;
78589;SDS011;67888;50.228;7.828;2023-02-21T22:15:00;11.88;;;5.93;;
78589;SDS011;67888;50.228;7.828;2023-02-21T22:20:02;12.67;;;5.20;;
78589;SDS011;67888;50.228;7.828;2023-02-21T22:25:17;11.73;;;5.82;;
78589;SDS011;67888;50.228;7.828;2023-02-21T22:30:19;12.50;;;5.60;;
78589;SDS011;67888;50.228;7.828;2023-02-21T22:35:23;12.80;;;5.63;;
78589;SDS011;67888;50.228;7.828;2023-02-21T22:40:25;12.43;;;6.10;;
78589;SDS011;67888;50.228;7.828;2023-02-21T22:45:27;15.02;;;6.32;;
78589;SDS011;67888;50.228;7.828;2023-02-21T22:50:32;10.63;;;5.07;;
78589;SDS011;67888;50.228;7.828;2023-02-21T22:55:36;12.40;;;5.60;;
78589;SDS011;67888;50.228;7.828;2023-02-21T23:00:36;13.15;;;6.20;;
78589;SDS011;67888;50.228;7.828;2023-02-21T23:05:40;13.30;;;5.83;;
78589;SDS011;67888;50.228;7.828;2023-02-21T23:10:46;10.60;;;5.45;;
78589;SDS011;67888;50.228;7.828;2023-02-21T23:15:47;13.90;;;5.70;;
78589;SDS011;67888;50.228;7.828;2023-02-21T23:20:48;12.55;;;5.30;;
78589;SDS011;67888;50.228;7.828;2023-02-21T23:25:56;10.73;;;4.97;;
78589;SDS011;67888;50.228;7.828;2023-02-21T23:30:58;15.00;;;5.60;;
78589;SDS011;67888;50.228;7.828;2023-02-21T23:35:58;11.20;;;5.13;;
78589;SDS011;67888;50.228;7.828;2023-02-21T23:40:59;13.10;;;6.03;;
78589;SDS011;67888;50.228;7.828;2023-02-21T23:46:02;11.47;;;5.83;;
78589;SDS011;67888;50.228;7.828;2023-02-21T23:51:08;12.87;;;5.63;;
78589;SDS011;67888;50.228;7.828;2023-02-21T23:56:09;13.27;;;6.03;;
